sensor_id;sensor_type;location;lat;lon;timestamp;temperature;humidity
2941;DHT22;1480;51.456;6.670;2022-09-16T00:01:17;16.80;77.10
2941;DHT22;1480;51.456;6.670;2022-09-16T00:03:45;16.90;76.80
2941;DHT22;1480;51.456;6.670;2022-09-16T00:06:20;16.90;77.20
2941;DHT22;1480;51.456;6.670;2022-09-16T00:08:48;16.90;77.00
2941;DHT22;1480;51.456;6.670;2022-09-16T00:11:17;16.80;77.20
2941;DHT22;1480;51.456;6.670;2022-09-16T00:13:46;16.80;77.20
2941;DHT22;1480;51.456;6.670;2022-09-16T00:16:17;16.80;76.80
2941;DHT22;1480;51.456;6.670;2022-09-16T00:18:45;16.80;77.20
2941;DHT22;1480;51.456;6.670;2022-09-16T00:21:12;16.80;77.30
2941;DHT22;1480;51.456;6.670;2022-09-16T00:23:39;16.80;77.20
2941;DHT22;1480;51.456;6.670;2022-09-16T00:26:06;16.80;77.10
2941;DHT22;1480;51.456;6.670;2022-09-16T00:28:33;16.60;76.50
2941;DHT22;1480;51.456;6.670;2022-09-16T00:31:02;16.60;77.80
2941;DHT22;1480;51.456;6.670;2022-09-16T00:33:30;16.60;77.50
2941;DHT22;1480;51.456;6.670;2022-09-16T00:36:05;16.60;77.20
2941;DHT22;1480;51.456;6.670;2022-09-16T00:38:33;16.60;77.70
2941;DHT22;1480;51.456;6.670;2022-09-16T00:41:00;16.60;77.40
2941;DHT22;1480;51.456;6.670;2022-09-16T00:43:27;16.50;77.50
2941;DHT22;1480;51.456;6.670;2022-09-16T00:45:57;16.50;77.50
2941;DHT22;1480;51.456;6.670;2022-09-16T00:48:29;16.50;78.00
2941;DHT22;1480;51.456;6.670;2022-09-16T00:51:00;16.50;78.20
2941;DHT22;1480;51.456;6.670;2022-09-16T00:53:31;16.40;78.10
2941;DHT22;1480;51.456;6.670;2022-09-16T00:56:02;16.30;78.40
2941;DHT22;1480;51.456;6.670;2022-09-16T00:58:34;16.30;78.70
2941;DHT22;1480;51.456;6.670;2022-09-16T01:01:04;16.40;78.70
2941;DHT22;1480;51.456;6.670;2022-09-16T01:03:36;16.40;78.60
2941;DHT22;1480;51.456;6.670;2022-09-16T01:06:05;16.40;78.90
2941;DHT22;1480;51.456;6.670;2022-09-16T01:08:32;16.30;79.10
2941;DHT22;1480;51.456;6.670;2022-09-16T01:11:00;16.40;78.10
2941;DHT22;1480;51.456;6.670;2022-09-16T01:13:27;16.50;78.50
2941;DHT22;1480;51.456;6.670;2022-09-16T01:15:58;16.40;78.40
2941;DHT22;1480;51.456;6.670;2022-09-16T01:18:33;16.40;79.00
2941;DHT22;1480;51.456;6.670;2022-09-16T01:21:24;16.40;78.80
2941;DHT22;1480;51.456;6.670;2022-09-16T01:24:32;16.40;78.90
2941;DHT22;1480;51.456;6.670;2022-09-16T01:27:13;16.30;78.90
2941;DHT22;1480;51.456;6.670;2022-09-16T01:30:11;16.30;78.80
2941;DHT22;1480;51.456;6.670;2022-09-16T01:32:48;16.20;79.30
2941;DHT22;1480;51.456;6.670;2022-09-16T01:35:26;16.20;78.90
2941;DHT22;1480;51.456;6.670;2022-09-16T01:38:02;16.20;78.90
2941;DHT22;1480;51.456;6.670;2022-09-16T01:40:38;16.20;78.90
2941;DHT22;1480;51.456;6.670;2022-09-16T01:43:16;16.30;78.60
2941;DHT22;1480;51.456;6.670;2022-09-16T01:45:50;16.40;78.70
2941;DHT22;1480;51.456;6.670;2022-09-16T01:48:25;16.40;78.80
2941;DHT22;1480;51.456;6.670;2022-09-16T01:50:59;16.40;78.40
2941;DHT22;1480;51.456;6.670;2022-09-16T01:53:32;16.40;78.20
2941;DHT22;1480;51.456;6.670;2022-09-16T01:56:06;16.40;78.50
2941;DHT22;1480;51.456;6.670;2022-09-16T01:58:38;16.40;77.90
2941;DHT22;1480;51.456;6.670;2022-09-16T02:01:10;16.50;78.10
2941;DHT22;1480;51.456;6.670;2022-09-16T02:03:46;16.60;78.40
2941;DHT22;1480;51.456;6.670;2022-09-16T02:06:19;16.60;77.90
2941;DHT22;1480;51.456;6.670;2022-09-16T02:08:50;16.60;78.20
2941;DHT22;1480;51.456;6.670;2022-09-16T02:11:19;16.50;77.80
2941;DHT22;1480;51.456;6.670;2022-09-16T02:13:49;16.50;78.30
2941;DHT22;1480;51.456;6.670;2022-09-16T02:16:22;16.50;78.30
2941;DHT22;1480;51.456;6.670;2022-09-16T02:18:54;16.60;78.30
2941;DHT22;1480;51.456;6.670;2022-09-16T02:21:23;16.50;78.10
2941;DHT22;1480;51.456;6.670;2022-09-16T02:23:54;16.40;78.60
2941;DHT22;1480;51.456;6.670;2022-09-16T02:26:25;16.30;78.60
2941;DHT22;1480;51.456;6.670;2022-09-16T02:28:55;16.40;79.20
2941;DHT22;1480;51.456;6.670;2022-09-16T02:31:27;16.40;78.70
2941;DHT22;1480;51.456;6.670;2022-09-16T02:34:00;16.30;78.50
2941;DHT22;1480;51.456;6.670;2022-09-16T02:36:29;16.40;78.80
2941;DHT22;1480;51.456;6.670;2022-09-16T02:39:02;16.40;78.40
2941;DHT22;1480;51.456;6.670;2022-09-16T02:41:33;16.30;78.70
2941;DHT22;1480;51.456;6.670;2022-09-16T02:44:01;16.50;78.50
2941;DHT22;1480;51.456;6.670;2022-09-16T02:46:35;16.50;78.60
2941;DHT22;1480;51.456;6.670;2022-09-16T02:49:09;16.50;79.00
2941;DHT22;1480;51.456;6.670;2022-09-16T02:51:43;16.40;79.00
2941;DHT22;1480;51.456;6.670;2022-09-16T02:54:20;16.40;78.50
2941;DHT22;1480;51.456;6.670;2022-09-16T02:56:47;16.30;78.70
2941;DHT22;1480;51.456;6.670;2022-09-16T02:59:15;16.40;78.70
2941;DHT22;1480;51.456;6.670;2022-09-16T03:01:45;16.40;78.50
2941;DHT22;1480;51.456;6.670;2022-09-16T03:04:16;16.40;78.60
2941;DHT22;1480;51.456;6.670;2022-09-16T03:06:45;16.40;78.60
2941;DHT22;1480;51.456;6.670;2022-09-16T03:09:13;16.30;79.00
2941;DHT22;1480;51.456;6.670;2022-09-16T03:14:52;16.20;79.00
2941;DHT22;1480;51.456;6.670;2022-09-16T03:17:32;16.30;78.90
2941;DHT22;1480;51.456;6.670;2022-09-16T03:20:08;16.30;79.10
2941;DHT22;1480;51.456;6.670;2022-09-16T03:22:46;16.30;78.60
2941;DHT22;1480;51.456;6.670;2022-09-16T03:25:24;16.30;78.80
2941;DHT22;1480;51.456;6.670;2022-09-16T03:27:58;16.30;78.80
2941;DHT22;1480;51.456;6.670;2022-09-16T03:30:29;16.30;78.90
2941;DHT22;1480;51.456;6.670;2022-09-16T03:33:00;16.30;78.50
2941;DHT22;1480;51.456;6.670;2022-09-16T03:35:35;16.20;78.70
2941;DHT22;1480;51.456;6.670;2022-09-16T03:38:05;16.10;79.10
2941;DHT22;1480;51.456;6.670;2022-09-16T03:40:34;16.10;78.80
2941;DHT22;1480;51.456;6.670;2022-09-16T03:43:09;16.10;79.10
2941;DHT22;1480;51.456;6.670;2022-09-16T03:45:36;16.00;79.20
2941;DHT22;1480;51.456;6.670;2022-09-16T03:48:05;16.00;79.10
2941;DHT22;1480;51.456;6.670;2022-09-16T03:50:34;16.00;79.50
2941;DHT22;1480;51.456;6.670;2022-09-16T03:53:01;16.00;79.80
2941;DHT22;1480;51.456;6.670;2022-09-16T03:55:28;15.90;79.40
2941;DHT22;1480;51.456;6.670;2022-09-16T03:57:55;16.00;79.50
2941;DHT22;1480;51.456;6.670;2022-09-16T04:00:22;16.10;78.80
2941;DHT22;1480;51.456;6.670;2022-09-16T04:02:49;16.00;78.70
2941;DHT22;1480;51.456;6.670;2022-09-16T04:05:16;16.00;79.20
2941;DHT22;1480;51.456;6.670;2022-09-16T04:07:47;16.00;79.00
2941;DHT22;1480;51.456;6.670;2022-09-16T04:10:15;16.00;78.40
2941;DHT22;1480;51.456;6.670;2022-09-16T04:12:41;15.90;78.80
2941;DHT22;1480;51.456;6.670;2022-09-16T04:15:09;16.00;78.90
2941;DHT22;1480;51.456;6.670;2022-09-16T04:17:36;15.90;78.80
2941;DHT22;1480;51.456;6.670;2022-09-16T04:20:04;15.80;78.90
2941;DHT22;1480;51.456;6.670;2022-09-16T04:22:32;15.80;79.00
2941;DHT22;1480;51.456;6.670;2022-09-16T04:25:00;15.80;78.90
2941;DHT22;1480;51.456;6.670;2022-09-16T04:27:27;15.90;79.00
2941;DHT22;1480;51.456;6.670;2022-09-16T04:29:54;15.90;78.70
2941;DHT22;1480;51.456;6.670;2022-09-16T04:32:21;15.90;78.60
2941;DHT22;1480;51.456;6.670;2022-09-16T04:34:49;15.80;78.40
2941;DHT22;1480;51.456;6.670;2022-09-16T04:37:16;15.70;78.10
2941;DHT22;1480;51.456;6.670;2022-09-16T04:39:43;15.80;78.60
2941;DHT22;1480;51.456;6.670;2022-09-16T04:42:12;15.80;78.60
2941;DHT22;1480;51.456;6.670;2022-09-16T04:44:39;15.90;78.50
2941;DHT22;1480;51.456;6.670;2022-09-16T04:47:06;15.90;77.90
2941;DHT22;1480;51.456;6.670;2022-09-16T04:49:33;15.80;78.40
2941;DHT22;1480;51.456;6.670;2022-09-16T04:52:00;15.90;78.40
2941;DHT22;1480;51.456;6.670;2022-09-16T04:54:27;15.90;78.60
2941;DHT22;1480;51.456;6.670;2022-09-16T04:56:54;15.90;78.20
2941;DHT22;1480;51.456;6.670;2022-09-16T04:59:23;15.90;78.40
2941;DHT22;1480;51.456;6.670;2022-09-16T05:01:50;15.90;79.20
2941;DHT22;1480;51.456;6.670;2022-09-16T05:04:17;15.90;78.60
2941;DHT22;1480;51.456;6.670;2022-09-16T05:06:44;15.90;78.90
2941;DHT22;1480;51.456;6.670;2022-09-16T05:09:11;15.90;79.30
2941;DHT22;1480;51.456;6.670;2022-09-16T05:11:39;15.80;79.40
2941;DHT22;1480;51.456;6.670;2022-09-16T05:14:09;15.90;79.80
2941;DHT22;1480;51.456;6.670;2022-09-16T05:16:39;16.00;79.00
2941;DHT22;1480;51.456;6.670;2022-09-16T05:19:06;16.00;79.30
2941;DHT22;1480;51.456;6.670;2022-09-16T05:21:35;16.10;79.20
2941;DHT22;1480;51.456;6.670;2022-09-16T05:24:04;16.00;79.70
2941;DHT22;1480;51.456;6.670;2022-09-16T05:26:33;15.90;80.20
2941;DHT22;1480;51.456;6.670;2022-09-16T05:29:02;15.90;79.40
2941;DHT22;1480;51.456;6.670;2022-09-16T05:31:30;16.00;79.90
2941;DHT22;1480;51.456;6.670;2022-09-16T05:34:00;15.90;79.50
2941;DHT22;1480;51.456;6.670;2022-09-16T05:36:31;15.90;79.90
2941;DHT22;1480;51.456;6.670;2022-09-16T05:38:58;16.00;79.80
2941;DHT22;1480;51.456;6.670;2022-09-16T05:41:25;16.00;79.40
2941;DHT22;1480;51.456;6.670;2022-09-16T05:43:52;15.90;79.40
2941;DHT22;1480;51.456;6.670;2022-09-16T05:46:22;15.90;80.00
2941;DHT22;1480;51.456;6.670;2022-09-16T05:48:49;15.70;79.70
2941;DHT22;1480;51.456;6.670;2022-09-16T05:51:19;15.70;80.00
2941;DHT22;1480;51.456;6.670;2022-09-16T05:53:48;15.70;79.90
2941;DHT22;1480;51.456;6.670;2022-09-16T05:56:17;15.80;80.10
2941;DHT22;1480;51.456;6.670;2022-09-16T05:58:44;15.80;80.20
2941;DHT22;1480;51.456;6.670;2022-09-16T06:01:14;15.80;79.60
2941;DHT22;1480;51.456;6.670;2022-09-16T06:03:42;15.50;79.80
2941;DHT22;1480;51.456;6.670;2022-09-16T06:06:13;15.60;80.50
2941;DHT22;1480;51.456;6.670;2022-09-16T06:08:43;15.50;80.70
2941;DHT22;1480;51.456;6.670;2022-09-16T06:11:11;15.60;80.80
2941;DHT22;1480;51.456;6.670;2022-09-16T06:13:38;15.70;80.90
2941;DHT22;1480;51.456;6.670;2022-09-16T06:16:07;15.80;80.00
2941;DHT22;1480;51.456;6.670;2022-09-16T06:18:35;15.90;80.30
2941;DHT22;1480;51.456;6.670;2022-09-16T06:21:04;15.90;80.00
2941;DHT22;1480;51.456;6.670;2022-09-16T06:23:32;15.70;79.40
2941;DHT22;1480;51.456;6.670;2022-09-16T06:26:01;15.60;79.90
2941;DHT22;1480;51.456;6.670;2022-09-16T06:28:29;15.60;80.30
2941;DHT22;1480;51.456;6.670;2022-09-16T06:31:06;15.70;79.90
2941;DHT22;1480;51.456;6.670;2022-09-16T06:33:34;15.80;80.30
2941;DHT22;1480;51.456;6.670;2022-09-16T06:36:04;15.70;79.70
2941;DHT22;1480;51.456;6.670;2022-09-16T06:38:32;15.70;79.60
2941;DHT22;1480;51.456;6.670;2022-09-16T06:41:02;15.70;79.50
2941;DHT22;1480;51.456;6.670;2022-09-16T06:43:29;15.70;80.30
2941;DHT22;1480;51.456;6.670;2022-09-16T06:45:57;15.70;80.40
2941;DHT22;1480;51.456;6.670;2022-09-16T06:48:25;15.80;79.70
2941;DHT22;1480;51.456;6.670;2022-09-16T06:50:58;15.80;78.80
2941;DHT22;1480;51.456;6.670;2022-09-16T06:53:26;15.90;79.30
2941;DHT22;1480;51.456;6.670;2022-09-16T06:55:53;15.90;79.20
2941;DHT22;1480;51.456;6.670;2022-09-16T06:58:21;15.90;79.20
2941;DHT22;1480;51.456;6.670;2022-09-16T07:00:48;16.20;79.90
2941;DHT22;1480;51.456;6.670;2022-09-16T07:03:16;16.30;79.00
2941;DHT22;1480;51.456;6.670;2022-09-16T07:05:43;16.30;78.50
2941;DHT22;1480;51.456;6.670;2022-09-16T07:08:10;16.40;78.70
2941;DHT22;1480;51.456;6.670;2022-09-16T07:10:37;16.50;79.70
2941;DHT22;1480;51.456;6.670;2022-09-16T07:13:04;16.50;77.80
2941;DHT22;1480;51.456;6.670;2022-09-16T07:15:32;16.40;77.60
2941;DHT22;1480;51.456;6.670;2022-09-16T07:17:59;16.30;78.00
2941;DHT22;1480;51.456;6.670;2022-09-16T07:20:26;16.40;78.90
2941;DHT22;1480;51.456;6.670;2022-09-16T07:22:54;16.40;78.50
2941;DHT22;1480;51.456;6.670;2022-09-16T07:25:21;16.50;78.30
2941;DHT22;1480;51.456;6.670;2022-09-16T07:27:48;16.70;77.70
2941;DHT22;1480;51.456;6.670;2022-09-16T07:30:15;16.60;77.50
2941;DHT22;1480;51.456;6.670;2022-09-16T07:32:43;16.70;77.70
2941;DHT22;1480;51.456;6.670;2022-09-16T07:35:10;16.90;77.40
2941;DHT22;1480;51.456;6.670;2022-09-16T07:37:37;16.90;77.10
2941;DHT22;1480;51.456;6.670;2022-09-16T07:40:05;17.00;76.80
2941;DHT22;1480;51.456;6.670;2022-09-16T07:42:32;17.00;77.70
2941;DHT22;1480;51.456;6.670;2022-09-16T07:44:59;17.30;77.30
2941;DHT22;1480;51.456;6.670;2022-09-16T07:47:26;17.40;75.40
2941;DHT22;1480;51.456;6.670;2022-09-16T07:49:55;17.40;74.70
2941;DHT22;1480;51.456;6.670;2022-09-16T07:52:22;17.40;73.00
2941;DHT22;1480;51.456;6.670;2022-09-16T07:54:53;17.40;73.40
2941;DHT22;1480;51.456;6.670;2022-09-16T07:57:21;17.30;72.30
2941;DHT22;1480;51.456;6.670;2022-09-16T07:59:48;17.30;72.90
2941;DHT22;1480;51.456;6.670;2022-09-16T08:02:15;17.50;72.10
2941;DHT22;1480;51.456;6.670;2022-09-16T08:04:43;17.60;73.20
2941;DHT22;1480;51.456;6.670;2022-09-16T08:07:12;17.60;71.10
2941;DHT22;1480;51.456;6.670;2022-09-16T08:09:39;17.60;71.70
2941;DHT22;1480;51.456;6.670;2022-09-16T08:12:08;17.60;71.80
2941;DHT22;1480;51.456;6.670;2022-09-16T08:14:35;17.60;72.60
2941;DHT22;1480;51.456;6.670;2022-09-16T08:17:03;17.80;71.50
2941;DHT22;1480;51.456;6.670;2022-09-16T08:19:30;18.00;70.30
2941;DHT22;1480;51.456;6.670;2022-09-16T08:21:57;18.10;70.10
2941;DHT22;1480;51.456;6.670;2022-09-16T08:24:25;18.00;68.40
2941;DHT22;1480;51.456;6.670;2022-09-16T08:26:52;18.00;68.70
2941;DHT22;1480;51.456;6.670;2022-09-16T08:29:19;18.00;69.50
2941;DHT22;1480;51.456;6.670;2022-09-16T08:31:47;18.10;69.70
2941;DHT22;1480;51.456;6.670;2022-09-16T08:34:14;18.30;67.60
2941;DHT22;1480;51.456;6.670;2022-09-16T08:36:41;18.30;64.30
2941;DHT22;1480;51.456;6.670;2022-09-16T08:39:09;18.20;65.20
2941;DHT22;1480;51.456;6.670;2022-09-16T08:42:08;18.20;65.60
2941;DHT22;1480;51.456;6.670;2022-09-16T08:44:47;17.90;67.10
2941;DHT22;1480;51.456;6.670;2022-09-16T08:47:28;18.00;68.80
2941;DHT22;1480;51.456;6.670;2022-09-16T08:50:00;18.30;66.00
2941;DHT22;1480;51.456;6.670;2022-09-16T08:52:30;18.50;65.90
2941;DHT22;1480;51.456;6.670;2022-09-16T08:55:01;18.60;64.00
2941;DHT22;1480;51.456;6.670;2022-09-16T08:57:36;18.50;64.60
2941;DHT22;1480;51.456;6.670;2022-09-16T09:00:09;18.70;64.30
2941;DHT22;1480;51.456;6.670;2022-09-16T09:02:41;18.80;63.00
2941;DHT22;1480;51.456;6.670;2022-09-16T09:05:18;18.60;62.50
2941;DHT22;1480;51.456;6.670;2022-09-16T09:07:56;18.50;62.00
2941;DHT22;1480;51.456;6.670;2022-09-16T09:10:37;18.70;62.60
2941;DHT22;1480;51.456;6.670;2022-09-16T09:13:29;18.60;62.70
2941;DHT22;1480;51.456;6.670;2022-09-16T09:16:01;18.70;61.00
2941;DHT22;1480;51.456;6.670;2022-09-16T09:18:38;18.70;60.30
2941;DHT22;1480;51.456;6.670;2022-09-16T09:21:15;18.70;56.90
2941;DHT22;1480;51.456;6.670;2022-09-16T09:24:06;18.60;57.40
2941;DHT22;1480;51.456;6.670;2022-09-16T09:26:45;18.30;58.30
2941;DHT22;1480;51.456;6.670;2022-09-16T09:29:31;18.50;58.20
2941;DHT22;1480;51.456;6.670;2022-09-16T09:32:07;18.30;57.60
2941;DHT22;1480;51.456;6.670;2022-09-16T09:34:50;18.30;58.00
2941;DHT22;1480;51.456;6.670;2022-09-16T09:37:40;18.30;58.40
2941;DHT22;1480;51.456;6.670;2022-09-16T09:40:13;18.30;56.60
2941;DHT22;1480;51.456;6.670;2022-09-16T09:42:47;18.40;59.60
2941;DHT22;1480;51.456;6.670;2022-09-16T09:45:24;18.80;59.30
2941;DHT22;1480;51.456;6.670;2022-09-16T09:47:56;19.00;58.80
2941;DHT22;1480;51.456;6.670;2022-09-16T09:50:27;19.20;56.60
2941;DHT22;1480;51.456;6.670;2022-09-16T09:53:11;18.90;54.40
2941;DHT22;1480;51.456;6.670;2022-09-16T09:55:40;18.70;55.60
2941;DHT22;1480;51.456;6.670;2022-09-16T09:58:16;18.80;55.50
2941;DHT22;1480;51.456;6.670;2022-09-16T10:00:46;18.70;53.80
2941;DHT22;1480;51.456;6.670;2022-09-16T10:03:15;18.60;54.20
2941;DHT22;1480;51.456;6.670;2022-09-16T10:05:43;18.70;55.70
2941;DHT22;1480;51.456;6.670;2022-09-16T10:08:16;18.70;53.40
2941;DHT22;1480;51.456;6.670;2022-09-16T10:10:48;18.60;54.60
2941;DHT22;1480;51.456;6.670;2022-09-16T10:13:17;18.60;55.30
2941;DHT22;1480;51.456;6.670;2022-09-16T10:15:47;18.50;56.70
2941;DHT22;1480;51.456;6.670;2022-09-16T10:18:24;18.30;57.10
2941;DHT22;1480;51.456;6.670;2022-09-16T10:20:59;18.30;58.90
2941;DHT22;1480;51.456;6.670;2022-09-16T10:23:26;18.50;56.30
2941;DHT22;1480;51.456;6.670;2022-09-16T10:26:17;18.80;54.90
2941;DHT22;1480;51.456;6.670;2022-09-16T10:29:00;19.10;53.50
2941;DHT22;1480;51.456;6.670;2022-09-16T10:31:33;19.30;53.00
2941;DHT22;1480;51.456;6.670;2022-09-16T10:34:02;19.10;52.10
2941;DHT22;1480;51.456;6.670;2022-09-16T10:36:33;18.80;52.60
2941;DHT22;1480;51.456;6.670;2022-09-16T10:39:01;18.60;53.50
2941;DHT22;1480;51.456;6.670;2022-09-16T10:41:31;18.60;53.80
2941;DHT22;1480;51.456;6.670;2022-09-16T10:44:13;18.50;55.20
2941;DHT22;1480;51.456;6.670;2022-09-16T10:46:51;18.20;55.50
2941;DHT22;1480;51.456;6.670;2022-09-16T10:49:21;18.00;57.50
2941;DHT22;1480;51.456;6.670;2022-09-16T10:51:52;18.20;56.00
2941;DHT22;1480;51.456;6.670;2022-09-16T10:54:25;18.40;55.00
2941;DHT22;1480;51.456;6.670;2022-09-16T10:56:53;18.60;55.80
2941;DHT22;1480;51.456;6.670;2022-09-16T10:59:20;18.90;54.30
2941;DHT22;1480;51.456;6.670;2022-09-16T11:01:55;18.90;52.00
2941;DHT22;1480;51.456;6.670;2022-09-16T11:04:54;18.90;52.20
2941;DHT22;1480;51.456;6.670;2022-09-16T11:07:35;18.40;54.50
2941;DHT22;1480;51.456;6.670;2022-09-16T11:10:10;17.90;65.30
2941;DHT22;1480;51.456;6.670;2022-09-16T11:13:04;16.70;73.90
2941;DHT22;1480;51.456;6.670;2022-09-16T11:15:46;15.70;77.60
2941;DHT22;1480;51.456;6.670;2022-09-16T11:18:27;15.20;81.70
2941;DHT22;1480;51.456;6.670;2022-09-16T11:24:06;15.00;85.10
2941;DHT22;1480;51.456;6.670;2022-09-16T11:26:39;15.10;86.80
2941;DHT22;1480;51.456;6.670;2022-09-16T11:29:19;15.30;86.90
2941;DHT22;1480;51.456;6.670;2022-09-16T11:31:53;15.30;86.60
2941;DHT22;1480;51.456;6.670;2022-09-16T11:34:36;15.40;88.30
2941;DHT22;1480;51.456;6.670;2022-09-16T11:37:13;15.50;87.80
2941;DHT22;1480;51.456;6.670;2022-09-16T11:40:00;15.70;87.80
2941;DHT22;1480;51.456;6.670;2022-09-16T11:42:32;15.90;88.00
2941;DHT22;1480;51.456;6.670;2022-09-16T11:45:14;15.90;88.00
2941;DHT22;1480;51.456;6.670;2022-09-16T11:47:57;15.70;86.20
2941;DHT22;1480;51.456;6.670;2022-09-16T11:50:37;15.90;87.30
2941;DHT22;1480;51.456;6.670;2022-09-16T11:56:21;15.90;88.10
2941;DHT22;1480;51.456;6.670;2022-09-16T11:58:54;16.00;88.50
2941;DHT22;1480;51.456;6.670;2022-09-16T12:01:28;15.90;86.30
2941;DHT22;1480;51.456;6.670;2022-09-16T12:03:59;15.90;87.70
2941;DHT22;1480;51.456;6.670;2022-09-16T12:06:35;16.00;87.50
2941;DHT22;1480;51.456;6.670;2022-09-16T12:09:08;16.30;87.60
2941;DHT22;1480;51.456;6.670;2022-09-16T12:11:41;16.40;86.00
2941;DHT22;1480;51.456;6.670;2022-09-16T12:14:13;16.40;80.10
2941;DHT22;1480;51.456;6.670;2022-09-16T12:16:44;16.40;80.30
2941;DHT22;1480;51.456;6.670;2022-09-16T12:19:17;16.50;83.70
2941;DHT22;1480;51.456;6.670;2022-09-16T12:21:50;16.70;83.50
2941;DHT22;1480;51.456;6.670;2022-09-16T12:24:23;16.80;81.00
2941;DHT22;1480;51.456;6.670;2022-09-16T12:26:56;17.00;79.60
2941;DHT22;1480;51.456;6.670;2022-09-16T12:29:28;16.90;80.00
2941;DHT22;1480;51.456;6.670;2022-09-16T12:32:02;17.00;79.20
2941;DHT22;1480;51.456;6.670;2022-09-16T12:34:36;16.80;78.30
2941;DHT22;1480;51.456;6.670;2022-09-16T12:37:23;16.50;77.20
2941;DHT22;1480;51.456;6.670;2022-09-16T12:39:52;16.50;79.40
2941;DHT22;1480;51.456;6.670;2022-09-16T12:42:49;16.60;79.00
2941;DHT22;1480;51.456;6.670;2022-09-16T12:45:33;16.70;80.40
2941;DHT22;1480;51.456;6.670;2022-09-16T12:48:22;16.80;78.50
2941;DHT22;1480;51.456;6.670;2022-09-16T12:54:08;16.80;77.80
2941;DHT22;1480;51.456;6.670;2022-09-16T12:57:07;17.00;78.60
2941;DHT22;1480;51.456;6.670;2022-09-16T12:59:54;17.00;79.20
2941;DHT22;1480;51.456;6.670;2022-09-16T13:02:27;17.00;78.70
2941;DHT22;1480;51.456;6.670;2022-09-16T13:05:02;17.10;78.00
2941;DHT22;1480;51.456;6.670;2022-09-16T13:07:33;17.10;76.50
2941;DHT22;1480;51.456;6.670;2022-09-16T13:10:04;17.30;76.80
2941;DHT22;1480;51.456;6.670;2022-09-16T13:12:33;17.10;76.90
2941;DHT22;1480;51.456;6.670;2022-09-16T13:15:02;17.00;77.70
2941;DHT22;1480;51.456;6.670;2022-09-16T13:17:32;16.90;79.50
2941;DHT22;1480;51.456;6.670;2022-09-16T13:20:04;16.60;79.50
2941;DHT22;1480;51.456;6.670;2022-09-16T13:22:36;16.50;80.80
2941;DHT22;1480;51.456;6.670;2022-09-16T13:25:19;16.10;83.10
2941;DHT22;1480;51.456;6.670;2022-09-16T13:27:58;15.70;86.00
2941;DHT22;1480;51.456;6.670;2022-09-16T13:30:33;15.50;86.70
2941;DHT22;1480;51.456;6.670;2022-09-16T13:33:17;15.60;88.20
2941;DHT22;1480;51.456;6.670;2022-09-16T13:35:48;15.60;88.80
2941;DHT22;1480;51.456;6.670;2022-09-16T13:38:36;15.70;91.10
2941;DHT22;1480;51.456;6.670;2022-09-16T13:41:07;15.80;90.20
2941;DHT22;1480;51.456;6.670;2022-09-16T13:43:49;15.70;90.30
2941;DHT22;1480;51.456;6.670;2022-09-16T13:46:29;15.50;89.40
2941;DHT22;1480;51.456;6.670;2022-09-16T13:49:04;15.30;92.20
2941;DHT22;1480;51.456;6.670;2022-09-16T13:51:38;15.30;92.30
2941;DHT22;1480;51.456;6.670;2022-09-16T13:54:28;15.20;90.30
2941;DHT22;1480;51.456;6.670;2022-09-16T13:57:20;15.10;89.30
2941;DHT22;1480;51.456;6.670;2022-09-16T14:00:14;15.10;90.50
2941;DHT22;1480;51.456;6.670;2022-09-16T14:03:00;15.20;89.70
2941;DHT22;1480;51.456;6.670;2022-09-16T14:05:49;15.20;89.80
2941;DHT22;1480;51.456;6.670;2022-09-16T14:08:26;15.40;89.80
2941;DHT22;1480;51.456;6.670;2022-09-16T14:10:59;15.60;88.80
2941;DHT22;1480;51.456;6.670;2022-09-16T14:13:35;15.70;86.60
2941;DHT22;1480;51.456;6.670;2022-09-16T14:16:11;15.80;85.50
2941;DHT22;1480;51.456;6.670;2022-09-16T14:18:41;15.80;82.10
2941;DHT22;1480;51.456;6.670;2022-09-16T14:21:18;15.80;83.10
2941;DHT22;1480;51.456;6.670;2022-09-16T14:23:45;15.90;84.30
2941;DHT22;1480;51.456;6.670;2022-09-16T14:26:14;15.90;82.60
2941;DHT22;1480;51.456;6.670;2022-09-16T14:28:43;15.90;81.00
2941;DHT22;1480;51.456;6.670;2022-09-16T14:31:15;15.90;80.40
2941;DHT22;1480;51.456;6.670;2022-09-16T14:33:46;16.00;80.40
2941;DHT22;1480;51.456;6.670;2022-09-16T14:36:21;16.00;79.10
2941;DHT22;1480;51.456;6.670;2022-09-16T14:38:53;15.90;80.40
2941;DHT22;1480;51.456;6.670;2022-09-16T14:41:25;15.90;80.60
2941;DHT22;1480;51.456;6.670;2022-09-16T14:44:02;16.10;80.50
2941;DHT22;1480;51.456;6.670;2022-09-16T14:46:36;16.20;80.10
2941;DHT22;1480;51.456;6.670;2022-09-16T14:49:04;16.10;77.30
2941;DHT22;1480;51.456;6.670;2022-09-16T14:51:35;16.20;79.80
2941;DHT22;1480;51.456;6.670;2022-09-16T14:54:02;16.20;79.80
2941;DHT22;1480;51.456;6.670;2022-09-16T14:56:29;16.20;78.10
2941;DHT22;1480;51.456;6.670;2022-09-16T14:58:58;16.10;78.10
2941;DHT22;1480;51.456;6.670;2022-09-16T15:01:26;16.20;79.60
2941;DHT22;1480;51.456;6.670;2022-09-16T15:03:56;16.10;78.70
2941;DHT22;1480;51.456;6.670;2022-09-16T15:06:30;16.30;79.40
2941;DHT22;1480;51.456;6.670;2022-09-16T15:09:02;16.30;78.00
2941;DHT22;1480;51.456;6.670;2022-09-16T15:11:32;16.40;77.10
2941;DHT22;1480;51.456;6.670;2022-09-16T15:14:04;16.30;75.10
2941;DHT22;1480;51.456;6.670;2022-09-16T15:16:33;16.20;77.70
2941;DHT22;1480;51.456;6.670;2022-09-16T15:19:12;16.20;76.00
2941;DHT22;1480;51.456;6.670;2022-09-16T15:21:43;16.30;76.50
2941;DHT22;1480;51.456;6.670;2022-09-16T15:24:18;16.10;76.60
2941;DHT22;1480;51.456;6.670;2022-09-16T15:26:46;16.00;77.30
2941;DHT22;1480;51.456;6.670;2022-09-16T15:29:28;16.00;77.80
2941;DHT22;1480;51.456;6.670;2022-09-16T15:32:13;15.90;77.50
2941;DHT22;1480;51.456;6.670;2022-09-16T15:34:40;15.90;75.60
2941;DHT22;1480;51.456;6.670;2022-09-16T15:37:30;15.90;79.10
2941;DHT22;1480;51.456;6.670;2022-09-16T15:40:08;15.80;77.90
2941;DHT22;1480;51.456;6.670;2022-09-16T15:42:36;15.80;78.40
2941;DHT22;1480;51.456;6.670;2022-09-16T15:45:14;16.00;77.50
2941;DHT22;1480;51.456;6.670;2022-09-16T15:47:57;16.00;76.50
2941;DHT22;1480;51.456;6.670;2022-09-16T15:50:25;16.00;78.10
2941;DHT22;1480;51.456;6.670;2022-09-16T15:52:58;16.10;76.20
2941;DHT22;1480;51.456;6.670;2022-09-16T15:55:31;16.10;77.20
2941;DHT22;1480;51.456;6.670;2022-09-16T15:58:04;16.10;72.80
2941;DHT22;1480;51.456;6.670;2022-09-16T16:00:57;15.90;76.20
2941;DHT22;1480;51.456;6.670;2022-09-16T16:03:26;16.00;76.40
2941;DHT22;1480;51.456;6.670;2022-09-16T16:05:54;16.10;75.90
2941;DHT22;1480;51.456;6.670;2022-09-16T16:08:40;16.10;75.20
2941;DHT22;1480;51.456;6.670;2022-09-16T16:11:09;16.10;74.10
2941;DHT22;1480;51.456;6.670;2022-09-16T16:13:37;16.10;72.30
2941;DHT22;1480;51.456;6.670;2022-09-16T16:16:06;16.00;73.60
2941;DHT22;1480;51.456;6.670;2022-09-16T16:18:35;16.00;71.70
2941;DHT22;1480;51.456;6.670;2022-09-16T16:21:07;16.10;74.40
2941;DHT22;1480;51.456;6.670;2022-09-16T16:23:35;16.00;73.70
2941;DHT22;1480;51.456;6.670;2022-09-16T16:26:03;16.00;71.30
2941;DHT22;1480;51.456;6.670;2022-09-16T16:28:30;16.00;72.60
2941;DHT22;1480;51.456;6.670;2022-09-16T16:31:10;16.00;71.40
2941;DHT22;1480;51.456;6.670;2022-09-16T16:33:40;16.10;71.40
2941;DHT22;1480;51.456;6.670;2022-09-16T16:36:07;16.10;71.60
2941;DHT22;1480;51.456;6.670;2022-09-16T16:38:34;16.10;71.90
2941;DHT22;1480;51.456;6.670;2022-09-16T16:41:04;16.20;72.20
2941;DHT22;1480;51.456;6.670;2022-09-16T16:43:32;16.10;72.40
2941;DHT22;1480;51.456;6.670;2022-09-16T16:46:02;16.20;73.90
2941;DHT22;1480;51.456;6.670;2022-09-16T16:48:30;16.40;73.40